sensor_id;sensor_type;location;lat;lon;timestamp;P1;durP1;ratioP1;P2;durP2;ratioP2
48795;SDS011;34607;48.520;-1.330;2022-12-24T07:49:13;19.85;;;4.97;;
48795;SDS011;34607;48.520;-1.330;2022-12-24T07:51:40;23.77;;;4.78;;
48795;SDS011;34607;48.520;-1.330;2022-12-24T07:54:08;24.17;;;4.35;;
48795;SDS011;34607;48.520;-1.330;2022-12-24T07:56:35;21.33;;;4.18;;
48795;SDS011;34607;48.520;-1.330;2022-12-24T07:59:02;26.00;;;4.45;;
48795;SDS011;34607;48.520;-1.330;2022-12-24T08:01:29;19.77;;;4.90;;
48795;SDS011;34607;48.520;-1.330;2022-12-24T08:03:56;24.20;;;4.43;;
48795;SDS011;34607;48.520;-1.330;2022-12-24T08:06:25;29.88;;;4.32;;
48795;SDS011;34607;48.520;-1.330;2022-12-24T08:08:52;24.98;;;5.18;;
48795;SDS011;34607;48.520;-1.330;2022-12-24T08:11:19;30.10;;;4.75;;
48795;SDS011;34607;48.520;-1.330;2022-12-24T08:13:46;20.52;;;3.55;;
48795;SDS011;34607;48.520;-1.330;2022-12-24T08:16:13;25.52;;;4.07;;
48795;SDS011;34607;48.520;-1.330;2022-12-24T08:18:41;20.27;;;4.40;;
48795;SDS011;34607;48.520;-1.330;2022-12-24T08:21:08;29.48;;;5.47;;
48795;SDS011;34607;48.520;-1.330;2022-12-24T08:23:37;24.90;;;4.15;;
48795;SDS011;34607;48.520;-1.330;2022-12-24T08:26:05;22.23;;;3.55;;
48795;SDS011;34607;48.520;-1.330;2022-12-24T08:28:33;21.98;;;3.85;;
48795;SDS011;34607;48.520;-1.330;2022-12-24T08:31:00;22.30;;;4.50;;
48795;SDS011;34607;48.520;-1.330;2022-12-24T08:33:28;19.92;;;4.38;;
48795;SDS011;34607;48.520;-1.330;2022-12-24T08:35:56;25.58;;;3.97;;
48795;SDS011;34607;48.520;-1.330;2022-12-24T08:38:23;20.45;;;3.30;;
48795;SDS011;34607;48.520;-1.330;2022-12-24T08:40:52;19.58;;;4.13;;
48795;SDS011;34607;48.520;-1.330;2022-12-24T08:43:21;25.60;;;4.68;;
48795;SDS011;34607;48.520;-1.330;2022-12-24T08:45:49;19.45;;;4.03;;
48795;SDS011;34607;48.520;-1.330;2022-12-24T08:48:16;23.35;;;3.67;;
48795;SDS011;34607;48.520;-1.330;2022-12-24T08:50:44;18.20;;;3.50;;
48795;SDS011;34607;48.520;-1.330;2022-12-24T08:53:11;23.25;;;4.90;;
48795;SDS011;34607;48.520;-1.330;2022-12-24T08:55:38;24.48;;;3.85;;
48795;SDS011;34607;48.520;-1.330;2022-12-24T08:58:07;24.15;;;3.85;;
48795;SDS011;34607;48.520;-1.330;2022-12-24T09:00:34;18.55;;;4.00;;
48795;SDS011;34607;48.520;-1.330;2022-12-24T09:03:01;23.77;;;3.83;;
48795;SDS011;34607;48.520;-1.330;2022-12-24T09:05:28;20.25;;;3.38;;
48795;SDS011;34607;48.520;-1.330;2022-12-24T09:07:55;23.55;;;4.00;;
48795;SDS011;34607;48.520;-1.330;2022-12-24T09:10:23;22.98;;;4.35;;
48795;SDS011;34607;48.520;-1.330;2022-12-24T09:12:50;17.15;;;3.45;;
48795;SDS011;34607;48.520;-1.330;2022-12-24T09:15:19;22.33;;;3.00;;
48795;SDS011;34607;48.520;-1.330;2022-12-24T09:17:46;19.20;;;4.15;;
48795;SDS011;34607;48.520;-1.330;2022-12-24T09:20:14;18.80;;;4.93;;
48795;SDS011;34607;48.520;-1.330;2022-12-24T09:22:41;22.73;;;4.50;;
48795;SDS011;34607;48.520;-1.330;2022-12-24T09:25:08;22.63;;;4.07;;
48795;SDS011;34607;48.520;-1.330;2022-12-24T09:27:35;20.20;;;3.50;;
48795;SDS011;34607;48.520;-1.330;2022-12-24T09:30:03;22.85;;;6.85;;
48795;SDS011;34607;48.520;-1.330;2022-12-24T09:32:33;27.30;;;4.53;;
48795;SDS011;34607;48.520;-1.330;2022-12-24T09:35:00;20.20;;;4.78;;
48795;SDS011;34607;48.520;-1.330;2022-12-24T09:37:27;25.65;;;5.30;;
48795;SDS011;34607;48.520;-1.330;2022-12-24T09:39:54;19.60;;;5.35;;
48795;SDS011;34607;48.520;-1.330;2022-12-24T09:42:25;13.73;;;3.88;;
48795;SDS011;34607;48.520;-1.330;2022-12-24T09:45:03;22.38;;;4.93;;
48795;SDS011;34607;48.520;-1.330;2022-12-24T09:47:42;14.75;;;4.05;;
48795;SDS011;34607;48.520;-1.330;2022-12-24T09:50:17;11.93;;;3.60;;
48795;SDS011;34607;48.520;-1.330;2022-12-24T09:52:52;14.00;;;3.08;;
48795;SDS011;34607;48.520;-1.330;2022-12-24T09:55:22;14.70;;;3.85;;
48795;SDS011;34607;48.520;-1.330;2022-12-24T09:57:53;16.10;;;3.35;;
48795;SDS011;34607;48.520;-1.330;2022-12-24T10:00:24;14.10;;;3.25;;
48795;SDS011;34607;48.520;-1.330;2022-12-24T10:02:55;18.20;;;3.38;;
48795;SDS011;34607;48.520;-1.330;2022-12-24T10:05:25;17.35;;;4.45;;
48795;SDS011;34607;48.520;-1.330;2022-12-24T10:08:04;11.38;;;3.05;;
48795;SDS011;34607;48.520;-1.330;2022-12-24T10:10:50;13.73;;;3.78;;
48795;SDS011;34607;48.520;-1.330;2022-12-24T10:13:22;17.77;;;3.63;;
48795;SDS011;34607;48.520;-1.330;2022-12-24T10:16:07;17.48;;;4.03;;
48795;SDS011;34607;48.520;-1.330;2022-12-24T10:18:53;17.90;;;4.20;;
48795;SDS011;34607;48.520;-1.330;2022-12-24T10:21:27;15.38;;;4.13;;
48795;SDS011;34607;48.520;-1.330;2022-12-24T10:24:04;16.05;;;3.88;;
48795;SDS011;34607;48.520;-1.330;2022-12-24T10:26:37;18.38;;;4.07;;
48795;SDS011;34607;48.520;-1.330;2022-12-24T10:29:12;23.35;;;3.80;;
48795;SDS011;34607;48.520;-1.330;2022-12-24T10:31:44;22.00;;;3.90;;
48795;SDS011;34607;48.520;-1.330;2022-12-24T10:34:21;17.50;;;4.00;;
48795;SDS011;34607;48.520;-1.330;2022-12-24T10:36:50;17.13;;;4.40;;
48795;SDS011;34607;48.520;-1.330;2022-12-24T10:39:18;16.65;;;3.42;;
48795;SDS011;34607;48.520;-1.330;2022-12-24T10:41:47;18.02;;;3.45;;
48795;SDS011;34607;48.520;-1.330;2022-12-24T10:44:18;20.27;;;3.78;;
48795;SDS011;34607;48.520;-1.330;2022-12-24T10:46:48;12.50;;;2.78;;
48795;SDS011;34607;48.520;-1.330;2022-12-24T10:49:15;11.75;;;3.20;;
48795;SDS011;34607;48.520;-1.330;2022-12-24T10:51:46;14.35;;;3.75;;
48795;SDS011;34607;48.520;-1.330;2022-12-24T10:54:19;13.48;;;2.90;;
48795;SDS011;34607;48.520;-1.330;2022-12-24T10:56:49;14.43;;;3.45;;
48795;SDS011;34607;48.520;-1.330;2022-12-24T10:59:24;15.57;;;2.88;;
48795;SDS011;34607;48.520;-1.330;2022-12-24T11:01:53;13.20;;;3.70;;
48795;SDS011;34607;48.520;-1.330;2022-12-24T11:04:22;15.00;;;2.97;;
48795;SDS011;34607;48.520;-1.330;2022-12-24T11:06:53;15.68;;;3.45;;
48795;SDS011;34607;48.520;-1.330;2022-12-24T11:09:23;20.05;;;4.20;;
48795;SDS011;34607;48.520;-1.330;2022-12-24T11:11:52;19.63;;;3.95;;
48795;SDS011;34607;48.520;-1.330;2022-12-24T11:14:20;16.48;;;3.50;;
48795;SDS011;34607;48.520;-1.330;2022-12-24T11:16:49;17.20;;;2.60;;
48795;SDS011;34607;48.520;-1.330;2022-12-24T11:19:28;17.80;;;3.72;;
48795;SDS011;34607;48.520;-1.330;2022-12-24T11:21:59;14.50;;;2.90;;
48795;SDS011;34607;48.520;-1.330;2022-12-24T11:24:29;11.90;;;2.67;;
48795;SDS011;34607;48.520;-1.330;2022-12-24T11:29:49;17.90;;;3.78;;
48795;SDS011;34607;48.520;-1.330;2022-12-24T11:32:17;16.20;;;3.03;;
48795;SDS011;34607;48.520;-1.330;2022-12-24T11:34:46;15.82;;;3.08;;
48795;SDS011;34607;48.520;-1.330;2022-12-24T11:37:16;19.73;;;4.40;;
48795;SDS011;34607;48.520;-1.330;2022-12-24T11:39:47;18.48;;;4.15;;
48795;SDS011;34607;48.520;-1.330;2022-12-24T11:42:24;12.05;;;2.72;;
48795;SDS011;34607;48.520;-1.330;2022-12-24T11:44:55;12.15;;;2.60;;
48795;SDS011;34607;48.520;-1.330;2022-12-24T11:47:33;11.68;;;2.47;;
48795;SDS011;34607;48.520;-1.330;2022-12-24T11:52:58;16.38;;;3.22;;
48795;SDS011;34607;48.520;-1.330;2022-12-24T11:55:33;17.73;;;3.78;;
48795;SDS011;34607;48.520;-1.330;2022-12-24T11:58:11;17.67;;;3.28;;
48795;SDS011;34607;48.520;-1.330;2022-12-24T12:00:46;13.85;;;3.83;;
48795;SDS011;34607;48.520;-1.330;2022-12-24T12:03:21;13.10;;;3.20;;
48795;SDS011;34607;48.520;-1.330;2022-12-24T12:05:54;15.38;;;4.15;;
48795;SDS011;34607;48.520;-1.330;2022-12-24T12:08:25;12.23;;;3.08;;
48795;SDS011;34607;48.520;-1.330;2022-12-24T12:10:54;19.92;;;3.38;;
48795;SDS011;34607;48.520;-1.330;2022-12-24T12:13:25;19.65;;;4.80;;
48795;SDS011;34607;48.520;-1.330;2022-12-24T12:16:02;17.65;;;3.33;;
48795;SDS011;34607;48.520;-1.330;2022-12-24T12:18:37;22.02;;;4.00;;
48795;SDS011;34607;48.520;-1.330;2022-12-24T12:21:08;14.10;;;3.75;;
48795;SDS011;34607;48.520;-1.330;2022-12-24T12:23:43;9.73;;;2.55;;
48795;SDS011;34607;48.520;-1.330;2022-12-24T12:26:16;12.63;;;2.67;;
48795;SDS011;34607;48.520;-1.330;2022-12-24T12:28:49;16.95;;;3.00;;
48795;SDS011;34607;48.520;-1.330;2022-12-24T12:31:21;15.32;;;3.72;;
48795;SDS011;34607;48.520;-1.330;2022-12-24T12:33:53;12.38;;;3.20;;
48795;SDS011;34607;48.520;-1.330;2022-12-24T12:36:27;12.15;;;2.60;;
48795;SDS011;34607;48.520;-1.330;2022-12-24T12:39:01;14.90;;;3.55;;
48795;SDS011;34607;48.520;-1.330;2022-12-24T12:41:40;13.73;;;2.80;;
48795;SDS011;34607;48.520;-1.330;2022-12-24T12:44:20;15.88;;;3.13;;
48795;SDS011;34607;48.520;-1.330;2022-12-24T12:47:07;18.70;;;3.03;;
48795;SDS011;34607;48.520;-1.330;2022-12-24T12:49:50;15.00;;;2.78;;
48795;SDS011;34607;48.520;-1.330;2022-12-24T12:52:33;13.15;;;3.33;;
48795;SDS011;34607;48.520;-1.330;2022-12-24T12:55:17;12.45;;;3.58;;
48795;SDS011;34607;48.520;-1.330;2022-12-24T12:57:53;15.52;;;4.47;;
48795;SDS011;34607;48.520;-1.330;2022-12-24T13:00:25;18.63;;;6.97;;
48795;SDS011;34607;48.520;-1.330;2022-12-24T13:03:10;19.00;;;9.98;;
48795;SDS011;34607;48.520;-1.330;2022-12-24T13:06:09;13.10;;;5.22;;
48795;SDS011;34607;48.520;-1.330;2022-12-24T13:12:04;13.60;;;3.25;;
48795;SDS011;34607;48.520;-1.330;2022-12-24T13:14:46;8.85;;;3.55;;
48795;SDS011;34607;48.520;-1.330;2022-12-24T13:17:38;12.32;;;3.58;;
48795;SDS011;34607;48.520;-1.330;2022-12-24T13:20:20;14.25;;;3.47;;
48795;SDS011;34607;48.520;-1.330;2022-12-24T13:22:56;11.40;;;2.75;;
48795;SDS011;34607;48.520;-1.330;2022-12-24T13:25:26;14.75;;;3.38;;
48795;SDS011;34607;48.520;-1.330;2022-12-24T13:31:21;13.52;;;3.35;;
48795;SDS011;34607;48.520;-1.330;2022-12-24T13:33:55;13.02;;;2.42;;
48795;SDS011;34607;48.520;-1.330;2022-12-24T13:39:28;6.28;;;2.17;;
48795;SDS011;34607;48.520;-1.330;2022-12-24T13:42:45;8.07;;;2.17;;
48795;SDS011;34607;48.520;-1.330;2022-12-24T13:48:24;12.85;;;3.67;;
48795;SDS011;34607;48.520;-1.330;2022-12-24T13:50:57;8.88;;;2.50;;
48795;SDS011;34607;48.520;-1.330;2022-12-24T13:53:26;6.10;;;1.90;;
48795;SDS011;34607;48.520;-1.330;2022-12-24T13:56:00;6.53;;;2.25;;
48795;SDS011;34607;48.520;-1.330;2022-12-24T13:58:32;10.25;;;2.92;;
48795;SDS011;34607;48.520;-1.330;2022-12-24T14:01:02;11.43;;;2.70;;
48795;SDS011;34607;48.520;-1.330;2022-12-24T14:03:32;11.50;;;2.63;;
48795;SDS011;34607;48.520;-1.330;2022-12-24T14:06:04;10.38;;;2.53;;
48795;SDS011;34607;48.520;-1.330;2022-12-24T14:08:36;8.45;;;2.28;;
48795;SDS011;34607;48.520;-1.330;2022-12-24T14:11:09;10.13;;;2.78;;
48795;SDS011;34607;48.520;-1.330;2022-12-24T14:13:53;9.15;;;2.30;;
48795;SDS011;34607;48.520;-1.330;2022-12-24T14:16:46;8.85;;;2.08;;
48795;SDS011;34607;48.520;-1.330;2022-12-24T14:19:16;9.25;;;2.20;;
48795;SDS011;34607;48.520;-1.330;2022-12-24T14:21:48;14.73;;;2.33;;
48795;SDS011;34607;48.520;-1.330;2022-12-24T14:24:20;10.38;;;3.28;;
48795;SDS011;34607;48.520;-1.330;2022-12-24T14:26:52;8.70;;;2.65;;
48795;SDS011;34607;48.520;-1.330;2022-12-24T14:29:24;11.70;;;2.80;;
48795;SDS011;34607;48.520;-1.330;2022-12-24T14:31:55;14.15;;;2.45;;
48795;SDS011;34607;48.520;-1.330;2022-12-24T14:34:23;13.38;;;2.83;;
48795;SDS011;34607;48.520;-1.330;2022-12-24T14:36:52;14.57;;;3.50;;
48795;SDS011;34607;48.520;-1.330;2022-12-24T14:39:22;8.10;;;2.47;;
48795;SDS011;34607;48.520;-1.330;2022-12-24T14:44:55;11.40;;;4.32;;
48795;SDS011;34607;48.520;-1.330;2022-12-24T14:47:32;8.93;;;3.50;;
48795;SDS011;34607;48.520;-1.330;2022-12-24T14:50:15;8.88;;;3.05;;
48795;SDS011;34607;48.520;-1.330;2022-12-24T14:53:05;10.52;;;2.83;;
48795;SDS011;34607;48.520;-1.330;2022-12-24T14:55:44;10.80;;;2.85;;
48795;SDS011;34607;48.520;-1.330;2022-12-24T14:58:18;11.38;;;2.63;;
48795;SDS011;34607;48.520;-1.330;2022-12-24T15:00:49;11.20;;;3.35;;
48795;SDS011;34607;48.520;-1.330;2022-12-24T15:03:18;9.63;;;2.47;;
48795;SDS011;34607;48.520;-1.330;2022-12-24T15:05:49;9.50;;;3.03;;
48795;SDS011;34607;48.520;-1.330;2022-12-24T15:08:19;8.38;;;2.70;;
48795;SDS011;34607;48.520;-1.330;2022-12-24T15:10:51;7.45;;;2.80;;
48795;SDS011;34607;48.520;-1.330;2022-12-24T15:13:23;5.57;;;2.63;;
48795;SDS011;34607;48.520;-1.330;2022-12-24T15:15:55;11.45;;;4.20;;
48795;SDS011;34607;48.520;-1.330;2022-12-24T15:18:24;6.80;;;2.60;;
48795;SDS011;34607;48.520;-1.330;2022-12-24T15:20:54;6.90;;;3.53;;
48795;SDS011;34607;48.520;-1.330;2022-12-24T15:23:26;7.75;;;3.00;;
48795;SDS011;34607;48.520;-1.330;2022-12-24T15:31:18;6.97;;;2.10;;
48795;SDS011;34607;48.520;-1.330;2022-12-24T15:33:48;7.18;;;2.08;;
48795;SDS011;34607;48.520;-1.330;2022-12-24T15:36:23;7.97;;;2.38;;
48795;SDS011;34607;48.520;-1.330;2022-12-24T15:38:53;9.98;;;2.45;;
48795;SDS011;34607;48.520;-1.330;2022-12-24T15:41:23;8.32;;;2.53;;
48795;SDS011;34607;48.520;-1.330;2022-12-24T15:43:53;5.82;;;2.53;;
48795;SDS011;34607;48.520;-1.330;2022-12-24T15:46:27;8.15;;;2.53;;
48795;SDS011;34607;48.520;-1.330;2022-12-24T15:48:56;7.07;;;2.72;;
48795;SDS011;34607;48.520;-1.330;2022-12-24T15:51:26;7.75;;;1.83;;
48795;SDS011;34607;48.520;-1.330;2022-12-24T15:53:57;12.85;;;3.00;;
48795;SDS011;34607;48.520;-1.330;2022-12-24T15:56:31;9.43;;;2.92;;
48795;SDS011;34607;48.520;-1.330;2022-12-24T15:59:22;3.70;;;1.98;;
48795;SDS011;34607;48.520;-1.330;2022-12-24T16:01:56;5.22;;;2.25;;
48795;SDS011;34607;48.520;-1.330;2022-12-24T16:04:53;10.45;;;2.15;;
48795;SDS011;34607;48.520;-1.330;2022-12-24T16:07:23;7.43;;;3.03;;
48795;SDS011;34607;48.520;-1.330;2022-12-24T16:10:22;9.57;;;6.03;;
48795;SDS011;34607;48.520;-1.330;2022-12-24T16:12:50;9.95;;;3.90;;
48795;SDS011;34607;48.520;-1.330;2022-12-24T16:15:18;7.93;;;2.53;;
48795;SDS011;34607;48.520;-1.330;2022-12-24T16:17:46;5.50;;;2.78;;
48795;SDS011;34607;48.520;-1.330;2022-12-24T16:20:15;7.75;;;2.85;;
48795;SDS011;34607;48.520;-1.330;2022-12-24T16:22:46;8.18;;;2.00;;
48795;SDS011;34607;48.520;-1.330;2022-12-24T16:25:20;6.97;;;2.10;;
48795;SDS011;34607;48.520;-1.330;2022-12-24T16:27:50;6.63;;;1.88;;
48795;SDS011;34607;48.520;-1.330;2022-12-24T16:30:18;5.47;;;2.10;;
48795;SDS011;34607;48.520;-1.330;2022-12-24T16:32:47;5.80;;;2.28;;
48795;SDS011;34607;48.520;-1.330;2022-12-24T16:35:19;7.95;;;2.47;;
48795;SDS011;34607;48.520;-1.330;2022-12-24T16:37:49;8.07;;;2.85;;
48795;SDS011;34607;48.520;-1.330;2022-12-24T16:40:16;7.80;;;2.53;;
48795;SDS011;34607;48.520;-1.330;2022-12-24T16:42:44;9.15;;;2.78;;
48795;SDS011;34607;48.520;-1.330;2022-12-24T16:47:57;24.98;;;14.30;;
48795;SDS011;34607;48.520;-1.330;2022-12-24T16:50:25;10.82;;;3.17;;
48795;SDS011;34607;48.520;-1.330;2022-12-24T16:52:52;6.47;;;2.53;;
48795;SDS011;34607;48.520;-1.330;2022-12-24T16:55:19;9.30;;;3.17;;
48795;SDS011;34607;48.520;-1.330;2022-12-24T16:57:46;11.07;;;3.55;;
48795;SDS011;34607;48.520;-1.330;2022-12-24T17:00:14;8.93;;;4.80;;
48795;SDS011;34607;48.520;-1.330;2022-12-24T17:02:45;8.20;;;4.05;;
48795;SDS011;34607;48.520;-1.330;2022-12-24T17:05:14;8.10;;;2.75;;
48795;SDS011;34607;48.520;-1.330;2022-12-24T17:07:41;7.82;;;2.65;;
48795;SDS011;34607;48.520;-1.330;2022-12-24T17:10:08;7.47;;;2.45;;
48795;SDS011;34607;48.520;-1.330;2022-12-24T17:12:36;7.00;;;2.28;;
48795;SDS011;34607;48.520;-1.330;2022-12-24T17:15:04;6.18;;;2.95;;
48795;SDS011;34607;48.520;-1.330;2022-12-24T17:17:32;6.18;;;2.70;;
48795;SDS011;34607;48.520;-1.330;2022-12-24T17:20:01;11.18;;;2.85;;
48795;SDS011;34607;48.520;-1.330;2022-12-24T17:22:28;6.43;;;2.45;;
48795;SDS011;34607;48.520;-1.330;2022-12-24T17:24:56;8.38;;;2.55;;
48795;SDS011;34607;48.520;-1.330;2022-12-24T17:27:23;8.55;;;2.67;;
48795;SDS011;34607;48.520;-1.330;2022-12-24T17:29:50;9.88;;;3.05;;
48795;SDS011;34607;48.520;-1.330;2022-12-24T17:32:18;9.27;;;3.05;;
48795;SDS011;34607;48.520;-1.330;2022-12-24T17:34:45;7.53;;;3.13;;
48795;SDS011;34607;48.520;-1.330;2022-12-24T17:37:14;5.70;;;2.60;;
48795;SDS011;34607;48.520;-1.330;2022-12-24T17:39:41;7.32;;;2.20;;
48795;SDS011;34607;48.520;-1.330;2022-12-24T17:42:08;10.63;;;3.03;;
48795;SDS011;34607;48.520;-1.330;2022-12-24T17:44:35;10.52;;;3.28;;
48795;SDS011;34607;48.520;-1.330;2022-12-24T17:47:02;12.55;;;3.40;;
48795;SDS011;34607;48.520;-1.330;2022-12-24T17:49:30;11.45;;;3.65;;
48795;SDS011;34607;48.520;-1.330;2022-12-24T17:51:57;7.88;;;2.90;;
48795;SDS011;34607;48.520;-1.330;2022-12-24T17:54:26;10.85;;;2.95;;
48795;SDS011;34607;48.520;-1.330;2022-12-24T17:56:53;8.55;;;3.10;;
48795;SDS011;34607;48.520;-1.330;2022-12-24T17:59:20;11.57;;;3.60;;
48795;SDS011;34607;48.520;-1.330;2022-12-24T18:01:48;9.80;;;3.20;;
48795;SDS011;34607;48.520;-1.330;2022-12-24T18:04:15;11.15;;;3.63;;
48795;SDS011;34607;48.520;-1.330;2022-12-24T18:06:42;7.45;;;3.10;;
48795;SDS011;34607;48.520;-1.330;2022-12-24T18:09:09;10.48;;;3.33;;
48795;SDS011;34607;48.520;-1.330;2022-12-24T18:11:38;14.25;;;4.30;;
48795;SDS011;34607;48.520;-1.330;2022-12-24T18:14:05;12.43;;;4.07;;
48795;SDS011;34607;48.520;-1.330;2022-12-24T18:16:34;10.80;;;3.42;;
48795;SDS011;34607;48.520;-1.330;2022-12-24T18:19:06;9.45;;;3.78;;
48795;SDS011;34607;48.520;-1.330;2022-12-24T18:21:34;15.35;;;9.10;;
48795;SDS011;34607;48.520;-1.330;2022-12-24T18:24:01;14.70;;;6.25;;
48795;SDS011;34607;48.520;-1.330;2022-12-24T18:26:29;12.85;;;6.95;;
48795;SDS011;34607;48.520;-1.330;2022-12-24T18:28:59;11.95;;;6.22;;
48795;SDS011;34607;48.520;-1.330;2022-12-24T18:31:28;16.85;;;5.53;;
48795;SDS011;34607;48.520;-1.330;2022-12-24T18:33:58;13.60;;;7.95;;
48795;SDS011;34607;48.520;-1.330;2022-12-24T18:36:26;13.00;;;7.45;;
48795;SDS011;34607;48.520;-1.330;2022-12-24T18:38:53;12.57;;;5.45;;
48795;SDS011;34607;48.520;-1.330;2022-12-24T18:41:21;8.52;;;5.35;;
48795;SDS011;34607;48.520;-1.330;2022-12-24T18:43:50;10.00;;;5.82;;
48795;SDS011;34607;48.520;-1.330;2022-12-24T18:46:20;12.85;;;4.80;;
48795;SDS011;34607;48.520;-1.330;2022-12-24T18:48:49;10.57;;;5.28;;
48795;SDS011;34607;48.520;-1.330;2022-12-24T18:51:17;13.63;;;6.05;;
48795;SDS011;34607;48.520;-1.330;2022-12-24T18:53:46;9.95;;;6.35;;
48795;SDS011;34607;48.520;-1.330;2022-12-24T18:56:14;11.27;;;5.82;;
48795;SDS011;34607;48.520;-1.330;2022-12-24T18:58:42;11.82;;;5.25;;
48795;SDS011;34607;48.520;-1.330;2022-12-24T19:01:10;10.90;;;5.45;;
48795;SDS011;34607;48.520;-1.330;2022-12-24T19:03:40;12.48;;;5.72;;
48795;SDS011;34607;48.520;-1.330;2022-12-24T19:06:07;13.32;;;5.35;;
48795;SDS011;34607;48.520;-1.330;2022-12-24T19:08:35;11.73;;;5.38;;
48795;SDS011;34607;48.520;-1.330;2022-12-24T19:11:03;10.27;;;4.88;;
48795;SDS011;34607;48.520;-1.330;2022-12-24T19:13:30;8.98;;;4.88;;
48795;SDS011;34607;48.520;-1.330;2022-12-24T19:15:58;11.18;;;5.13;;
48795;SDS011;34607;48.520;-1.330;2022-12-24T19:18:26;14.05;;;9.73;;
48795;SDS011;34607;48.520;-1.330;2022-12-24T19:20:54;11.32;;;6.60;;
48795;SDS011;34607;48.520;-1.330;2022-12-24T19:23:21;8.10;;;5.15;;
48795;SDS011;34607;48.520;-1.330;2022-12-24T19:25:48;13.50;;;4.97;;
48795;SDS011;34607;48.520;-1.330;2022-12-24T19:28:15;6.05;;;4.07;;
48795;SDS011;34607;48.520;-1.330;2022-12-24T19:30:43;9.82;;;4.90;;
48795;SDS011;34607;48.520;-1.330;2022-12-24T19:33:10;11.98;;;5.57;;
48795;SDS011;34607;48.520;-1.330;2022-12-24T19:35:37;8.02;;;4.18;;
48795;SDS011;34607;48.520;-1.330;2022-12-24T19:38:05;7.97;;;4.47;;
48795;SDS011;34607;48.520;-1.330;2022-12-24T19:40:34;6.43;;;3.83;;
48795;SDS011;34607;48.520;-1.330;2022-12-24T19:43:01;7.70;;;3.80;;
48795;SDS011;34607;48.520;-1.330;2022-12-24T19:45:29;8.02;;;4.03;;
48795;SDS011;34607;48.520;-1.330;2022-12-24T19:47:56;10.57;;;4.30;;
48795;SDS011;34607;48.520;-1.330;2022-12-24T19:50:23;6.57;;;4.32;;
48795;SDS011;34607;48.520;-1.330;2022-12-24T19:52:50;6.90;;;4.13;;
48795;SDS011;34607;48.520;-1.330;2022-12-24T19:55:19;16.75;;;6.60;;
48795;SDS011;34607;48.520;-1.330;2022-12-24T19:57:46;17.35;;;9.02;;
48795;SDS011;34607;48.520;-1.330;2022-12-24T20:00:13;11.00;;;7.78;;
48795;SDS011;34607;48.520;-1.330;2022-12-24T20:02:41;10.57;;;6.00;;
48795;SDS011;34607;48.520;-1.330;2022-12-24T20:05:08;10.18;;;6.72;;
48795;SDS011;34607;48.520;-1.330;2022-12-24T20:07:35;7.78;;;5.50;;
48795;SDS011;34607;48.520;-1.330;2022-12-24T20:10:02;8.25;;;6.60;;
48795;SDS011;34607;48.520;-1.330;2022-12-24T20:12:31;8.13;;;6.35;;
48795;SDS011;34607;48.520;-1.330;2022-12-24T20:14:58;6.28;;;4.22;;
48795;SDS011;34607;48.520;-1.330;2022-12-24T20:17:25;6.40;;;5.30;;
48795;SDS011;34607;48.520;-1.330;2022-12-24T20:19:52;10.48;;;6.72;;
48795;SDS011;34607;48.520;-1.330;2022-12-24T20:22:20;12.00;;;8.00;;
48795;SDS011;34607;48.520;-1.330;2022-12-24T20:24:47;6.25;;;4.70;;
48795;SDS011;34607;48.520;-1.330;2022-12-24T20:27:14;6.50;;;4.30;;
48795;SDS011;34607;48.520;-1.330;2022-12-24T20:29:44;7.13;;;3.70;;
48795;SDS011;34607;48.520;-1.330;2022-12-24T20:32:13;10.20;;;5.72;;
48795;SDS011;34607;48.520;-1.330;2022-12-24T20:34:40;6.40;;;4.20;;
48795;SDS011;34607;48.520;-1.330;2022-12-24T20:37:08;9.68;;;5.60;;
48795;SDS011;34607;48.520;-1.330;2022-12-24T20:39:35;6.68;;;6.07;;
48795;SDS011;34607;48.520;-1.330;2022-12-24T20:42:02;6.15;;;5.43;;
48795;SDS011;34607;48.520;-1.330;2022-12-24T20:44:29;5.57;;;4.40;;
48795;SDS011;34607;48.520;-1.330;2022-12-24T20:46:58;6.38;;;4.22;;
48795;SDS011;34607;48.520;-1.330;2022-12-24T20:49:25;6.68;;;3.97;;
48795;SDS011;34607;48.520;-1.330;2022-12-24T20:51:52;6.53;;;4.32;;
48795;SDS011;34607;48.520;-1.330;2022-12-24T20:54:19;8.00;;;3.28;;
48795;SDS011;34607;48.520;-1.330;2022-12-24T20:56:46;5.88;;;3.70;;
48795;SDS011;34607;48.520;-1.330;2022-12-24T20:59:14;5.38;;;3.88;;
48795;SDS011;34607;48.520;-1.330;2022-12-24T21:01:41;8.43;;;5.45;;
48795;SDS011;34607;48.520;-1.330;2022-12-24T21:04:09;6.45;;;5.68;;
48795;SDS011;34607;48.520;-1.330;2022-12-24T21:06:37;8.35;;;5.88;;
48795;SDS011;34607;48.520;-1.330;2022-12-24T21:09:04;9.88;;;5.68;;
48795;SDS011;34607;48.520;-1.330;2022-12-24T21:11:31;6.70;;;4.38;;
48795;SDS011;34607;48.520;-1.330;2022-12-24T21:14:17;7.65;;;4.57;;
48795;SDS011;34607;48.520;-1.330;2022-12-24T21:16:46;7.97;;;5.28;;
48795;SDS011;34607;48.520;-1.330;2022-12-24T21:19:17;7.65;;;5.53;;
48795;SDS011;34607;48.520;-1.330;2022-12-24T21:21:47;8.13;;;4.10;;
48795;SDS011;34607;48.520;-1.330;2022-12-24T21:24:15;6.47;;;5.82;;
48795;SDS011;34607;48.520;-1.330;2022-12-24T21:26:43;9.45;;;5.85;;
48795;SDS011;34607;48.520;-1.330;2022-12-24T21:29:10;8.60;;;7.30;;
48795;SDS011;34607;48.520;-1.330;2022-12-24T21:31:38;7.30;;;6.40;;
48795;SDS011;34607;48.520;-1.330;2022-12-24T21:34:06;8.93;;;6.70;;
48795;SDS011;34607;48.520;-1.330;2022-12-24T21:36:35;7.95;;;7.15;;
48795;SDS011;34607;48.520;-1.330;2022-12-24T21:39:02;8.73;;;5.97;;
48795;SDS011;34607;48.520;-1.330;2022-12-24T21:41:29;7.93;;;5.97;;
48795;SDS011;34607;48.520;-1.330;2022-12-24T21:43:58;6.22;;;5.50;;
48795;SDS011;34607;48.520;-1.330;2022-12-24T21:46:26;8.88;;;5.97;;
48795;SDS011;34607;48.520;-1.330;2022-12-24T21:48:54;6.57;;;5.50;;
48795;SDS011;34607;48.520;-1.330;2022-12-24T21:51:40;10.38;;;5.50;;
48795;SDS011;34607;48.520;-1.330;2022-12-24T21:54:10;5.85;;;5.32;;
48795;SDS011;34607;48.520;-1.330;2022-12-24T21:56:52;6.03;;;5.22;;
48795;SDS011;34607;48.520;-1.330;2022-12-24T21:59:37;6.90;;;6.00;;
48795;SDS011;34607;48.520;-1.330;2022-12-24T22:02:05;7.28;;;6.03;;
48795;SDS011;34607;48.520;-1.330;2022-12-24T22:04:33;7.97;;;5.25;;
48795;SDS011;34607;48.520;-1.330;2022-12-24T22:07:02;7.55;;;6.43;;
48795;SDS011;34607;48.520;-1.330;2022-12-24T22:09:47;7.35;;;5.28;;
48795;SDS011;34607;48.520;-1.330;2022-12-24T22:12:31;6.10;;;5.50;;
48795;SDS011;34607;48.520;-1.330;2022-12-24T22:14:59;8.23;;;5.63;;
48795;SDS011;34607;48.520;-1.330;2022-12-24T22:17:27;8.38;;;6.13;;
48795;SDS011;34607;48.520;-1.330;2022-12-24T22:19:54;9.65;;;6.20;;
48795;SDS011;34607;48.520;-1.330;2022-12-24T22:22:23;6.40;;;5.80;;
48795;SDS011;34607;48.520;-1.330;2022-12-24T22:24:50;7.90;;;5.75;;
48795;SDS011;34607;48.520;-1.330;2022-12-24T22:27:17;7.45;;;6.20;;
48795;SDS011;34607;48.520;-1.330;2022-12-24T22:29:44;9.00;;;6.47;;
48795;SDS011;34607;48.520;-1.330;2022-12-24T22:32:11;7.05;;;5.47;;
48795;SDS011;34607;48.520;-1.330;2022-12-24T22:34:39;6.35;;;5.60;;
48795;SDS011;34607;48.520;-1.330;2022-12-24T22:37:06;6.80;;;5.63;;
48795;SDS011;34607;48.520;-1.330;2022-12-24T22:39:34;8.75;;;5.68;;
48795;SDS011;34607;48.520;-1.330;2022-12-24T22:42:03;7.43;;;4.85;;
48795;SDS011;34607;48.520;-1.330;2022-12-24T22:44:30;10.93;;;7.72;;
48795;SDS011;34607;48.520;-1.330;2022-12-24T22:46:58;9.02;;;8.05;;
48795;SDS011;34607;48.520;-1.330;2022-12-24T22:49:25;7.68;;;6.80;;
48795;SDS011;34607;48.520;-1.330;2022-12-24T22:51:54;8.90;;;5.82;;
48795;SDS011;34607;48.520;-1.330;2022-12-24T22:54:22;8.02;;;5.30;;
48795;SDS011;34607;48.520;-1.330;2022-12-24T22:56:50;8.32;;;6.03;;
48795;SDS011;34607;48.520;-1.330;2022-12-24T22:59:18;5.95;;;5.15;;
48795;SDS011;34607;48.520;-1.330;2022-12-24T23:01:46;6.63;;;5.55;;
48795;SDS011;34607;48.520;-1.330;2022-12-24T23:04:13;8.73;;;6.80;;